Yellowstone Natl Park, Wyoming
Current Conditions -  °F | °C
As of 5:56 AM on Thursday 18 Dec 2014 (Local Time) from KDIJ Reporting Station
Overcast Overcast  
Wind Chill: 19°   Ceiling: 4000
Heat Index: 26°   Visibility: 10mi
Dew Point: 24°   Wind: 6mph
Humidity: 92%   Direction: 340°NNW
Pressure: 30.06"   Gusts: NA
Location:  44.5°N, 110.58°W
Report Text: KDIJ 181256Z AUTO 34005KT 10SM OVC040 M03/M04 A3006 RMK AO2 T10331044 OVC V BKN SLP189
Loading
Personal Weather Stations






























Interactive Weather Map New forecast layout! Learn more

10-Day Weather Forecast

Advertisements
Track Severe Weather on mobile